sensor_id;sensor_type;location;lat;lon;timestamp;temperature;humidity
48686;DHT22;34485;51.536;3.816;2022-10-18T00:00:55;14.10;99.90
48686;DHT22;34485;51.536;3.816;2022-10-18T00:03:21;14.00;99.90
48686;DHT22;34485;51.536;3.816;2022-10-18T00:05:48;14.00;99.90
48686;DHT22;34485;51.536;3.816;2022-10-18T00:08:14;14.00;99.90
48686;DHT22;34485;51.536;3.816;2022-10-18T00:10:40;14.00;99.90
48686;DHT22;34485;51.536;3.816;2022-10-18T00:13:06;13.90;99.90
48686;DHT22;34485;51.536;3.816;2022-10-18T00:15:31;13.90;99.90
48686;DHT22;34485;51.536;3.816;2022-10-18T00:17:57;13.80;99.90
48686;DHT22;34485;51.536;3.816;2022-10-18T00:20:23;13.80;99.90
48686;DHT22;34485;51.536;3.816;2022-10-18T00:22:48;13.70;99.90
48686;DHT22;34485;51.536;3.816;2022-10-18T00:25:14;13.60;99.90
48686;DHT22;34485;51.536;3.816;2022-10-18T00:27:40;13.60;99.90
48686;DHT22;34485;51.536;3.816;2022-10-18T00:30:06;13.50;99.90
48686;DHT22;34485;51.536;3.816;2022-10-18T00:32:36;13.50;99.90
48686;DHT22;34485;51.536;3.816;2022-10-18T00:35:03;13.50;99.90
48686;DHT22;34485;51.536;3.816;2022-10-18T00:37:29;13.50;99.90
48686;DHT22;34485;51.536;3.816;2022-10-18T00:39:54;13.40;99.90
48686;DHT22;34485;51.536;3.816;2022-10-18T00:42:21;13.40;99.90
48686;DHT22;34485;51.536;3.816;2022-10-18T00:47:15;13.30;99.90
48686;DHT22;34485;51.536;3.816;2022-10-18T00:49:49;13.30;99.90
48686;DHT22;34485;51.536;3.816;2022-10-18T00:52:23;13.20;99.90
48686;DHT22;34485;51.536;3.816;2022-10-18T00:54:51;13.20;99.90
48686;DHT22;34485;51.536;3.816;2022-10-18T00:57:17;13.20;99.90
48686;DHT22;34485;51.536;3.816;2022-10-18T00:59:43;13.20;99.90
48686;DHT22;34485;51.536;3.816;2022-10-18T01:02:10;13.20;99.90
48686;DHT22;34485;51.536;3.816;2022-10-18T01:04:39;13.20;99.90
48686;DHT22;34485;51.536;3.816;2022-10-18T01:10:17;13.20;99.90
48686;DHT22;34485;51.536;3.816;2022-10-18T01:17:56;13.20;99.90
48686;DHT22;34485;51.536;3.816;2022-10-18T01:21:00;13.20;99.90
48686;DHT22;34485;51.536;3.816;2022-10-18T01:24:14;13.30;99.90
48686;DHT22;34485;51.536;3.816;2022-10-18T01:32:20;13.20;99.90
48686;DHT22;34485;51.536;3.816;2022-10-18T01:34:47;13.20;99.90
48686;DHT22;34485;51.536;3.816;2022-10-18T01:37:16;13.10;99.90
48686;DHT22;34485;51.536;3.816;2022-10-18T01:39:46;13.10;99.90
48686;DHT22;34485;51.536;3.816;2022-10-18T01:42:14;13.10;99.90
48686;DHT22;34485;51.536;3.816;2022-10-18T01:44:43;13.10;99.90
48686;DHT22;34485;51.536;3.816;2022-10-18T01:47:10;13.00;99.90
48686;DHT22;34485;51.536;3.816;2022-10-18T01:52:02;13.00;99.90
48686;DHT22;34485;51.536;3.816;2022-10-18T01:54:32;13.00;99.90
48686;DHT22;34485;51.536;3.816;2022-10-18T01:57:08;12.90;99.90
48686;DHT22;34485;51.536;3.816;2022-10-18T02:05:23;12.80;99.90
48686;DHT22;34485;51.536;3.816;2022-10-18T02:08:14;12.70;99.90
48686;DHT22;34485;51.536;3.816;2022-10-18T02:10:48;12.70;99.90
48686;DHT22;34485;51.536;3.816;2022-10-18T02:13:18;12.60;99.90
48686;DHT22;34485;51.536;3.816;2022-10-18T02:15:47;12.60;99.90
48686;DHT22;34485;51.536;3.816;2022-10-18T02:18:28;12.60;99.90
48686;DHT22;34485;51.536;3.816;2022-10-18T02:20:57;12.50;99.90
48686;DHT22;34485;51.536;3.816;2022-10-18T02:23:24;12.50;99.90
48686;DHT22;34485;51.536;3.816;2022-10-18T02:25:51;12.50;99.90
48686;DHT22;34485;51.536;3.816;2022-10-18T02:28:17;12.50;99.90
48686;DHT22;34485;51.536;3.816;2022-10-18T02:30:44;12.50;99.90
48686;DHT22;34485;51.536;3.816;2022-10-18T02:33:13;12.40;99.90
48686;DHT22;34485;51.536;3.816;2022-10-18T02:35:46;12.40;99.90
48686;DHT22;34485;51.536;3.816;2022-10-18T02:38:15;12.40;99.90
48686;DHT22;34485;51.536;3.816;2022-10-18T02:40:41;12.40;99.90
48686;DHT22;34485;51.536;3.816;2022-10-18T02:43:07;12.40;99.90
48686;DHT22;34485;51.536;3.816;2022-10-18T02:45:33;12.40;99.90
48686;DHT22;34485;51.536;3.816;2022-10-18T02:47:59;12.30;99.90
48686;DHT22;34485;51.536;3.816;2022-10-18T02:50:24;12.40;99.90
48686;DHT22;34485;51.536;3.816;2022-10-18T02:52:50;12.30;99.90
48686;DHT22;34485;51.536;3.816;2022-10-18T02:55:16;12.30;99.90
48686;DHT22;34485;51.536;3.816;2022-10-18T02:57:41;12.20;99.90
48686;DHT22;34485;51.536;3.816;2022-10-18T03:00:07;12.20;99.90
48686;DHT22;34485;51.536;3.816;2022-10-18T03:02:33;12.20;99.90
48686;DHT22;34485;51.536;3.816;2022-10-18T03:04:59;12.20;99.90
48686;DHT22;34485;51.536;3.816;2022-10-18T03:07:25;12.20;99.90
48686;DHT22;34485;51.536;3.816;2022-10-18T03:09:51;12.20;99.90
48686;DHT22;34485;51.536;3.816;2022-10-18T03:12:17;12.20;99.90
48686;DHT22;34485;51.536;3.816;2022-10-18T03:14:42;12.10;99.90
48686;DHT22;34485;51.536;3.816;2022-10-18T03:17:08;12.10;99.90
48686;DHT22;34485;51.536;3.816;2022-10-18T03:19:33;11.90;99.90
48686;DHT22;34485;51.536;3.816;2022-10-18T03:21:59;11.90;99.90
48686;DHT22;34485;51.536;3.816;2022-10-18T03:24:25;11.80;99.90
48686;DHT22;34485;51.536;3.816;2022-10-18T03:26:50;11.80;99.90
48686;DHT22;34485;51.536;3.816;2022-10-18T03:29:16;11.70;99.90
48686;DHT22;34485;51.536;3.816;2022-10-18T03:31:41;11.70;99.90
48686;DHT22;34485;51.536;3.816;2022-10-18T03:34:07;11.60;99.90
48686;DHT22;34485;51.536;3.816;2022-10-18T03:36:32;11.60;99.90
48686;DHT22;34485;51.536;3.816;2022-10-18T03:38:58;11.60;99.90
48686;DHT22;34485;51.536;3.816;2022-10-18T03:41:24;11.60;99.90
48686;DHT22;34485;51.536;3.816;2022-10-18T03:43:50;11.60;99.90
48686;DHT22;34485;51.536;3.816;2022-10-18T03:46:15;11.50;99.90
48686;DHT22;34485;51.536;3.816;2022-10-18T03:48:41;11.50;99.90
48686;DHT22;34485;51.536;3.816;2022-10-18T03:51:07;11.50;99.90
48686;DHT22;34485;51.536;3.816;2022-10-18T03:53:32;11.50;99.90
48686;DHT22;34485;51.536;3.816;2022-10-18T03:55:58;11.50;99.90
48686;DHT22;34485;51.536;3.816;2022-10-18T03:58:23;11.50;99.90
48686;DHT22;34485;51.536;3.816;2022-10-18T04:00:50;11.50;99.90
48686;DHT22;34485;51.536;3.816;2022-10-18T04:03:17;11.50;99.90
48686;DHT22;34485;51.536;3.816;2022-10-18T04:05:43;11.50;99.90
48686;DHT22;34485;51.536;3.816;2022-10-18T04:08:09;11.50;99.90
48686;DHT22;34485;51.536;3.816;2022-10-18T04:10:37;11.50;99.90
48686;DHT22;34485;51.536;3.816;2022-10-18T04:13:03;11.50;99.90
48686;DHT22;34485;51.536;3.816;2022-10-18T04:15:28;11.50;99.90
48686;DHT22;34485;51.536;3.816;2022-10-18T04:17:54;11.50;99.90
48686;DHT22;34485;51.536;3.816;2022-10-18T04:20:21;11.50;99.90
48686;DHT22;34485;51.536;3.816;2022-10-18T04:22:47;11.40;99.90
48686;DHT22;34485;51.536;3.816;2022-10-18T04:25:14;11.40;99.90
48686;DHT22;34485;51.536;3.816;2022-10-18T04:27:39;11.40;99.90
48686;DHT22;34485;51.536;3.816;2022-10-18T04:30:05;11.40;99.90
48686;DHT22;34485;51.536;3.816;2022-10-18T04:32:31;11.30;99.90
48686;DHT22;34485;51.536;3.816;2022-10-18T04:34:56;11.30;99.90
48686;DHT22;34485;51.536;3.816;2022-10-18T04:37:22;11.30;99.90
48686;DHT22;34485;51.536;3.816;2022-10-18T04:39:48;11.20;99.90
48686;DHT22;34485;51.536;3.816;2022-10-18T04:42:14;11.20;99.90
48686;DHT22;34485;51.536;3.816;2022-10-18T04:44:39;11.20;99.90
48686;DHT22;34485;51.536;3.816;2022-10-18T04:47:05;11.20;99.90
48686;DHT22;34485;51.536;3.816;2022-10-18T04:49:31;11.10;99.90
48686;DHT22;34485;51.536;3.816;2022-10-18T04:51:56;11.10;99.90
48686;DHT22;34485;51.536;3.816;2022-10-18T04:54:22;11.10;99.90
48686;DHT22;34485;51.536;3.816;2022-10-18T04:56:47;11.10;99.90
48686;DHT22;34485;51.536;3.816;2022-10-18T04:59:13;11.00;99.90
48686;DHT22;34485;51.536;3.816;2022-10-18T05:01:39;11.00;99.90
48686;DHT22;34485;51.536;3.816;2022-10-18T05:04:04;10.90;99.90
48686;DHT22;34485;51.536;3.816;2022-10-18T05:06:30;10.90;99.90
48686;DHT22;34485;51.536;3.816;2022-10-18T05:08:55;10.90;99.90
48686;DHT22;34485;51.536;3.816;2022-10-18T05:11:21;10.90;99.90
48686;DHT22;34485;51.536;3.816;2022-10-18T05:13:47;10.80;99.90
48686;DHT22;34485;51.536;3.816;2022-10-18T05:16:12;10.80;99.90
48686;DHT22;34485;51.536;3.816;2022-10-18T05:21:04;10.70;99.90
48686;DHT22;34485;51.536;3.816;2022-10-18T05:23:29;10.70;99.90
48686;DHT22;34485;51.536;3.816;2022-10-18T05:26:00;10.70;99.90
48686;DHT22;34485;51.536;3.816;2022-10-18T05:28:26;10.60;99.90
48686;DHT22;34485;51.536;3.816;2022-10-18T05:30:52;10.60;99.90
48686;DHT22;34485;51.536;3.816;2022-10-18T05:33:17;10.60;99.90
48686;DHT22;34485;51.536;3.816;2022-10-18T05:35:43;10.50;99.90
48686;DHT22;34485;51.536;3.816;2022-10-18T05:38:08;10.50;99.90
48686;DHT22;34485;51.536;3.816;2022-10-18T05:40:37;10.50;99.90
48686;DHT22;34485;51.536;3.816;2022-10-18T05:43:03;10.50;99.90
48686;DHT22;34485;51.536;3.816;2022-10-18T05:45:29;10.50;99.90
48686;DHT22;34485;51.536;3.816;2022-10-18T05:47:55;10.50;99.90
48686;DHT22;34485;51.536;3.816;2022-10-18T05:50:20;10.50;99.90
48686;DHT22;34485;51.536;3.816;2022-10-18T05:52:46;10.50;99.90
48686;DHT22;34485;51.536;3.816;2022-10-18T05:55:11;10.50;99.90
48686;DHT22;34485;51.536;3.816;2022-10-18T05:57:37;10.50;99.90
48686;DHT22;34485;51.536;3.816;2022-10-18T06:00:03;10.40;99.90
48686;DHT22;34485;51.536;3.816;2022-10-18T06:02:29;10.40;99.90
48686;DHT22;34485;51.536;3.816;2022-10-18T06:04:54;10.40;99.90
48686;DHT22;34485;51.536;3.816;2022-10-18T06:07:20;10.40;99.90
48686;DHT22;34485;51.536;3.816;2022-10-18T06:09:45;10.40;99.90
48686;DHT22;34485;51.536;3.816;2022-10-18T06:12:11;10.40;99.90
48686;DHT22;34485;51.536;3.816;2022-10-18T06:14:36;10.40;99.90
48686;DHT22;34485;51.536;3.816;2022-10-18T06:17:02;10.40;99.90
48686;DHT22;34485;51.536;3.816;2022-10-18T06:19:28;10.40;99.90
48686;DHT22;34485;51.536;3.816;2022-10-18T06:21:53;10.40;99.90
48686;DHT22;34485;51.536;3.816;2022-10-18T06:24:19;10.40;99.90
48686;DHT22;34485;51.536;3.816;2022-10-18T06:26:46;10.40;99.90
48686;DHT22;34485;51.536;3.816;2022-10-18T06:29:12;10.40;99.90
48686;DHT22;34485;51.536;3.816;2022-10-18T06:31:38;10.40;99.90
48686;DHT22;34485;51.536;3.816;2022-10-18T06:34:03;10.40;99.90
48686;DHT22;34485;51.536;3.816;2022-10-18T06:36:29;10.30;99.90
48686;DHT22;34485;51.536;3.816;2022-10-18T06:38:55;10.40;99.90
48686;DHT22;34485;51.536;3.816;2022-10-18T06:41:21;10.30;99.90
48686;DHT22;34485;51.536;3.816;2022-10-18T06:43:51;10.30;99.90
48686;DHT22;34485;51.536;3.816;2022-10-18T06:46:18;10.30;99.90
48686;DHT22;34485;51.536;3.816;2022-10-18T06:48:44;10.30;99.90
48686;DHT22;34485;51.536;3.816;2022-10-18T06:51:10;10.30;99.90
48686;DHT22;34485;51.536;3.816;2022-10-18T06:53:38;10.30;99.90
48686;DHT22;34485;51.536;3.816;2022-10-18T06:56:14;10.30;99.90
48686;DHT22;34485;51.536;3.816;2022-10-18T06:58:40;10.30;99.90
48686;DHT22;34485;51.536;3.816;2022-10-18T07:01:10;10.40;99.90
48686;DHT22;34485;51.536;3.816;2022-10-18T07:03:37;10.40;99.90
48686;DHT22;34485;51.536;3.816;2022-10-18T07:06:04;10.40;99.90
48686;DHT22;34485;51.536;3.816;2022-10-18T07:08:31;10.50;99.90
48686;DHT22;34485;51.536;3.816;2022-10-18T07:10:57;10.60;99.90
48686;DHT22;34485;51.536;3.816;2022-10-18T07:13:23;10.60;99.90
48686;DHT22;34485;51.536;3.816;2022-10-18T07:16:02;10.70;99.90
48686;DHT22;34485;51.536;3.816;2022-10-18T07:18:28;10.80;99.90
48686;DHT22;34485;51.536;3.816;2022-10-18T07:20:54;10.90;99.90
48686;DHT22;34485;51.536;3.816;2022-10-18T07:25:48;11.20;99.90
48686;DHT22;34485;51.536;3.816;2022-10-18T07:28:14;11.20;99.90
48686;DHT22;34485;51.536;3.816;2022-10-18T07:30:39;11.40;99.90
48686;DHT22;34485;51.536;3.816;2022-10-18T07:33:05;11.60;99.90
48686;DHT22;34485;51.536;3.816;2022-10-18T07:35:30;11.90;99.90
48686;DHT22;34485;51.536;3.816;2022-10-18T07:37:56;12.40;99.90
48686;DHT22;34485;51.536;3.816;2022-10-18T07:40:22;13.30;99.90
48686;DHT22;34485;51.536;3.816;2022-10-18T07:42:47;14.40;99.90
48686;DHT22;34485;51.536;3.816;2022-10-18T07:45:13;15.20;99.90
48686;DHT22;34485;51.536;3.816;2022-10-18T07:47:38;15.80;99.90
48686;DHT22;34485;51.536;3.816;2022-10-18T07:50:04;16.50;99.90
48686;DHT22;34485;51.536;3.816;2022-10-18T07:52:30;16.90;99.90
48686;DHT22;34485;51.536;3.816;2022-10-18T07:54:56;17.50;99.90
48686;DHT22;34485;51.536;3.816;2022-10-18T07:57:21;18.30;99.90
48686;DHT22;34485;51.536;3.816;2022-10-18T07:59:47;19.20;99.90
48686;DHT22;34485;51.536;3.816;2022-10-18T08:02:16;20.00;99.90
48686;DHT22;34485;51.536;3.816;2022-10-18T08:04:42;20.60;97.60
48686;DHT22;34485;51.536;3.816;2022-10-18T08:07:07;21.20;92.60
48686;DHT22;34485;51.536;3.816;2022-10-18T08:09:33;21.70;91.30
48686;DHT22;34485;51.536;3.816;2022-10-18T08:11:59;22.10;88.90
48686;DHT22;34485;51.536;3.816;2022-10-18T08:14:24;22.70;87.10
48686;DHT22;34485;51.536;3.816;2022-10-18T08:16:50;23.20;82.50
48686;DHT22;34485;51.536;3.816;2022-10-18T08:19:15;23.70;78.10
48686;DHT22;34485;51.536;3.816;2022-10-18T08:21:41;24.20;72.30
48686;DHT22;34485;51.536;3.816;2022-10-18T08:24:07;24.50;72.10
48686;DHT22;34485;51.536;3.816;2022-10-18T08:26:32;24.70;69.10
48686;DHT22;34485;51.536;3.816;2022-10-18T08:28:58;24.90;68.30
48686;DHT22;34485;51.536;3.816;2022-10-18T08:31:23;25.00;67.60
48686;DHT22;34485;51.536;3.816;2022-10-18T08:33:49;24.70;67.60
48686;DHT22;34485;51.536;3.816;2022-10-18T08:36:15;24.40;69.00
48686;DHT22;34485;51.536;3.816;2022-10-18T08:38:42;23.90;70.60
48686;DHT22;34485;51.536;3.816;2022-10-18T08:44:15;23.00;75.70
48686;DHT22;34485;51.536;3.816;2022-10-18T08:46:48;22.90;76.20
48686;DHT22;34485;51.536;3.816;2022-10-18T08:49:35;22.70;76.60
48686;DHT22;34485;51.536;3.816;2022-10-18T08:52:03;22.60;75.70
48686;DHT22;34485;51.536;3.816;2022-10-18T08:54:48;22.60;75.90
48686;DHT22;34485;51.536;3.816;2022-10-18T08:57:17;22.40;74.90
48686;DHT22;34485;51.536;3.816;2022-10-18T08:59:43;22.40;74.10
48686;DHT22;34485;51.536;3.816;2022-10-18T09:02:33;22.40;72.70
48686;DHT22;34485;51.536;3.816;2022-10-18T09:13:36;22.40;73.60
48686;DHT22;34485;51.536;3.816;2022-10-18T09:16:10;22.50;73.40
48686;DHT22;34485;51.536;3.816;2022-10-18T09:27:15;22.80;69.40
48686;DHT22;34485;51.536;3.816;2022-10-18T09:29:59;22.80;71.40
48686;DHT22;34485;51.536;3.816;2022-10-18T09:32:37;22.80;69.60
48686;DHT22;34485;51.536;3.816;2022-10-18T09:35:21;22.70;70.10
48686;DHT22;34485;51.536;3.816;2022-10-18T09:37:49;22.70;70.60
48686;DHT22;34485;51.536;3.816;2022-10-18T09:40:26;22.60;68.90
48686;DHT22;34485;51.536;3.816;2022-10-18T09:42:58;22.30;69.60
48686;DHT22;34485;51.536;3.816;2022-10-18T09:45:29;22.20;71.70
48686;DHT22;34485;51.536;3.816;2022-10-18T09:50:47;22.40;67.20
48686;DHT22;34485;51.536;3.816;2022-10-18T09:53:52;22.50;69.40
48686;DHT22;34485;51.536;3.816;2022-10-18T09:56:49;22.70;69.30
48686;DHT22;34485;51.536;3.816;2022-10-18T09:58:55;22.90;66.30
48686;DHT22;34485;51.536;3.816;2022-10-18T10:01:26;23.20;66.80
48686;DHT22;34485;51.536;3.816;2022-10-18T10:03:53;23.10;64.60
48686;DHT22;34485;51.536;3.816;2022-10-18T10:06:36;23.00;65.00
48686;DHT22;34485;51.536;3.816;2022-10-18T10:09:16;23.10;65.00
48686;DHT22;34485;51.536;3.816;2022-10-18T10:11:49;23.10;66.00
48686;DHT22;34485;51.536;3.816;2022-10-18T10:14:23;23.10;65.10
48686;DHT22;34485;51.536;3.816;2022-10-18T10:16:56;23.20;63.90
48686;DHT22;34485;51.536;3.816;2022-10-18T10:19:29;23.10;64.70
48686;DHT22;34485;51.536;3.816;2022-10-18T10:22:13;23.00;65.50
48686;DHT22;34485;51.536;3.816;2022-10-18T10:24:49;22.90;65.90
48686;DHT22;34485;51.536;3.816;2022-10-18T10:27:33;22.80;67.10
48686;DHT22;34485;51.536;3.816;2022-10-18T10:32:50;22.80;65.00
48686;DHT22;34485;51.536;3.816;2022-10-18T10:35:21;22.90;65.80
48686;DHT22;34485;51.536;3.816;2022-10-18T10:37:52;23.10;65.20
48686;DHT22;34485;51.536;3.816;2022-10-18T10:42:54;22.90;67.40
48686;DHT22;34485;51.536;3.816;2022-10-18T10:45:22;23.00;66.10
48686;DHT22;34485;51.536;3.816;2022-10-18T10:47:50;22.90;66.50
48686;DHT22;34485;51.536;3.816;2022-10-18T10:50:23;22.90;69.10
48686;DHT22;34485;51.536;3.816;2022-10-18T10:52:49;22.80;67.10
48686;DHT22;34485;51.536;3.816;2022-10-18T10:55:17;22.90;67.40
48686;DHT22;34485;51.536;3.816;2022-10-18T10:57:46;22.80;62.90
48686;DHT22;34485;51.536;3.816;2022-10-18T11:00:36;22.70;63.70
48686;DHT22;34485;51.536;3.816;2022-10-18T11:03:21;22.70;64.90
48686;DHT22;34485;51.536;3.816;2022-10-18T11:05:50;22.50;62.40
48686;DHT22;34485;51.536;3.816;2022-10-18T11:08:32;22.10;66.80
48686;DHT22;34485;51.536;3.816;2022-10-18T11:11:10;21.90;65.70
48686;DHT22;34485;51.536;3.816;2022-10-18T11:13:50;21.60;66.80
48686;DHT22;34485;51.536;3.816;2022-10-18T11:16:52;21.30;65.50
48686;DHT22;34485;51.536;3.816;2022-10-18T11:19:43;20.90;70.50
48686;DHT22;34485;51.536;3.816;2022-10-18T11:22:17;20.50;71.80
48686;DHT22;34485;51.536;3.816;2022-10-18T11:24:43;20.20;73.30
48686;DHT22;34485;51.536;3.816;2022-10-18T11:27:24;19.90;72.20
48686;DHT22;34485;51.536;3.816;2022-10-18T11:30:01;19.70;74.50
48686;DHT22;34485;51.536;3.816;2022-10-18T11:33:20;19.50;77.30
48686;DHT22;34485;51.536;3.816;2022-10-18T11:35:50;19.40;75.20
48686;DHT22;34485;51.536;3.816;2022-10-18T11:38:28;19.40;75.20
48686;DHT22;34485;51.536;3.816;2022-10-18T11:41:29;19.40;75.70
48686;DHT22;34485;51.536;3.816;2022-10-18T11:44:06;19.40;72.40
48686;DHT22;34485;51.536;3.816;2022-10-18T11:46:51;19.40;72.50
48686;DHT22;34485;51.536;3.816;2022-10-18T11:49:55;19.40;72.90
48686;DHT22;34485;51.536;3.816;2022-10-18T11:52:53;19.30;72.50
48686;DHT22;34485;51.536;3.816;2022-10-18T11:55:53;19.20;75.10
48686;DHT22;34485;51.536;3.816;2022-10-18T12:01:02;19.10;73.80
48686;DHT22;34485;51.536;3.816;2022-10-18T12:06:32;19.10;73.50
48686;DHT22;34485;51.536;3.816;2022-10-18T12:09:06;19.20;72.00
48686;DHT22;34485;51.536;3.816;2022-10-18T12:11:38;19.20;74.30
48686;DHT22;34485;51.536;3.816;2022-10-18T12:14:29;19.20;74.00
48686;DHT22;34485;51.536;3.816;2022-10-18T12:17:01;19.20;74.60
48686;DHT22;34485;51.536;3.816;2022-10-18T12:19:29;19.10;78.20
48686;DHT22;34485;51.536;3.816;2022-10-18T12:22:05;19.00;79.60
48686;DHT22;34485;51.536;3.816;2022-10-18T12:24:36;19.00;77.80
48686;DHT22;34485;51.536;3.816;2022-10-18T12:27:02;18.90;76.80
48686;DHT22;34485;51.536;3.816;2022-10-18T12:32:11;18.80;77.00
48686;DHT22;34485;51.536;3.816;2022-10-18T12:39:57;18.70;79.40
48686;DHT22;34485;51.536;3.816;2022-10-18T12:42:26;18.60;79.80
48686;DHT22;34485;51.536;3.816;2022-10-18T12:45:26;18.60;81.50
48686;DHT22;34485;51.536;3.816;2022-10-18T12:47:50;18.60;83.30
48686;DHT22;34485;51.536;3.816;2022-10-18T12:50:28;18.50;80.90
48686;DHT22;34485;51.536;3.816;2022-10-18T12:53:11;18.50;80.90
48686;DHT22;34485;51.536;3.816;2022-10-18T12:55:41;18.50;80.80
48686;DHT22;34485;51.536;3.816;2022-10-18T13:27:32;18.30;83.50
48686;DHT22;34485;51.536;3.816;2022-10-18T13:32:57;18.20;83.40
48686;DHT22;34485;51.536;3.816;2022-10-18T13:35:52;18.20;84.00
48686;DHT22;34485;51.536;3.816;2022-10-18T13:38:44;18.20;83.50
48686;DHT22;34485;51.536;3.816;2022-10-18T13:41:16;18.20;82.30
48686;DHT22;34485;51.536;3.816;2022-10-18T13:48:45;18.10;83.30
48686;DHT22;34485;51.536;3.816;2022-10-18T14:04:45;17.80;84.80
48686;DHT22;34485;51.536;3.816;2022-10-18T14:07:15;17.90;84.20
48686;DHT22;34485;51.536;3.816;2022-10-18T14:09:46;17.90;84.60
48686;DHT22;34485;51.536;3.816;2022-10-18T14:12:31;17.80;83.40
48686;DHT22;34485;51.536;3.816;2022-10-18T14:17:59;17.90;82.10
48686;DHT22;34485;51.536;3.816;2022-10-18T14:20:37;17.80;81.20
48686;DHT22;34485;51.536;3.816;2022-10-18T14:23:20;17.80;80.90
48686;DHT22;34485;51.536;3.816;2022-10-18T14:25:46;17.70;79.90
48686;DHT22;34485;51.536;3.816;2022-10-18T14:28:17;17.70;81.10
48686;DHT22;34485;51.536;3.816;2022-10-18T14:30:55;17.60;79.70
48686;DHT22;34485;51.536;3.816;2022-10-18T14:33:40;17.50;81.70
48686;DHT22;34485;51.536;3.816;2022-10-18T14:36:21;17.50;84.20
48686;DHT22;34485;51.536;3.816;2022-10-18T14:39:15;17.50;81.40
48686;DHT22;34485;51.536;3.816;2022-10-18T14:41:54;17.40;86.10
48686;DHT22;34485;51.536;3.816;2022-10-18T14:44:24;17.40;84.10
48686;DHT22;34485;51.536;3.816;2022-10-18T14:49:23;17.30;81.80
48686;DHT22;34485;51.536;3.816;2022-10-18T14:51:56;17.30;80.90
48686;DHT22;34485;51.536;3.816;2022-10-18T14:54:29;17.20;85.60
48686;DHT22;34485;51.536;3.816;2022-10-18T14:56:56;17.20;84.40
48686;DHT22;34485;51.536;3.816;2022-10-18T14:59:25;17.20;84.90
48686;DHT22;34485;51.536;3.816;2022-10-18T15:02:16;17.10;84.00
48686;DHT22;34485;51.536;3.816;2022-10-18T15:04:46;17.00;82.00
48686;DHT22;34485;51.536;3.816;2022-10-18T15:07:18;17.00;83.00
48686;DHT22;34485;51.536;3.816;2022-10-18T15:12:13;16.90;82.90
48686;DHT22;34485;51.536;3.816;2022-10-18T15:14:40;16.80;84.00
48686;DHT22;34485;51.536;3.816;2022-10-18T15:17:29;16.80;84.30
48686;DHT22;34485;51.536;3.816;2022-10-18T15:20:01;16.70;83.70
48686;DHT22;34485;51.536;3.816;2022-10-18T15:22:30;16.70;85.40
48686;DHT22;34485;51.536;3.816;2022-10-18T15:25:15;16.70;87.10
48686;DHT22;34485;51.536;3.816;2022-10-18T15:27:49;16.60;86.00
48686;DHT22;34485;51.536;3.816;2022-10-18T15:30:27;16.50;89.50
48686;DHT22;34485;51.536;3.816;2022-10-18T15:33:00;16.50;90.90
48686;DHT22;34485;51.536;3.816;2022-10-18T15:35:34;16.40;91.00
48686;DHT22;34485;51.536;3.816;2022-10-18T15:38:13;16.30;91.10
48686;DHT22;34485;51.536;3.816;2022-10-18T15:40:39;16.30;92.60
48686;DHT22;34485;51.536;3.816;2022-10-18T15:45:58;16.10;93.30
48686;DHT22;34485;51.536;3.816;2022-10-18T15:48:34;16.10;93.10
48686;DHT22;34485;51.536;3.816;2022-10-18T15:51:05;16.00;93.70
48686;DHT22;34485;51.536;3.816;2022-10-18T15:53:33;16.00;94.10
48686;DHT22;34485;51.536;3.816;2022-10-18T15:58:44;15.80;95.80
48686;DHT22;34485;51.536;3.816;2022-10-18T16:01:16;15.80;95.70
48686;DHT22;34485;51.536;3.816;2022-10-18T16:03:43;15.70;96.70
48686;DHT22;34485;51.536;3.816;2022-10-18T16:06:10;15.70;97.80
48686;DHT22;34485;51.536;3.816;2022-10-18T16:08:42;15.60;98.30
48686;DHT22;34485;51.536;3.816;2022-10-18T16:11:15;15.50;99.10
48686;DHT22;34485;51.536;3.816;2022-10-18T16:13:42;15.40;99.60
48686;DHT22;34485;51.536;3.816;2022-10-18T16:16:14;15.30;99.90
48686;DHT22;34485;51.536;3.816;2022-10-18T16:18:40;15.30;99.90
48686;DHT22;34485;51.536;3.816;2022-10-18T16:21:18;15.20;99.90
48686;DHT22;34485;51.536;3.816;2022-10-18T16:23:45;15.10;99.90
48686;DHT22;34485;51.536;3.816;2022-10-18T16:26:13;15.00;99.90
48686;DHT22;34485;51.536;3.816;2022-10-18T16:28:39;14.90;99.90
48686;DHT22;34485;51.536;3.816;2022-10-18T16:31:05;14.80;99.90
48686;DHT22;34485;51.536;3.816;2022-10-18T16:33:31;14.70;99.90
48686;DHT22;34485;51.536;3.816;2022-10-18T16:35:56;14.60;99.90
48686;DHT22;34485;51.536;3.816;2022-10-18T16:38:33;14.50;99.90
48686;DHT22;34485;51.536;3.816;2022-10-18T16:41:03;14.50;99.90
48686;DHT22;34485;51.536;3.816;2022-10-18T16:43:29;14.40;99.90
48686;DHT22;34485;51.536;3.816;2022-10-18T16:45:55;14.40;99.90
48686;DHT22;34485;51.536;3.816;2022-10-18T16:50:50;14.20;99.90
48686;DHT22;34485;51.536;3.816;2022-10-18T16:53:16;14.10;99.90
48686;DHT22;34485;51.536;3.816;2022-10-18T16:55:42;14.10;99.90
48686;DHT22;34485;51.536;3.816;2022-10-18T16:58:15;13.90;99.90
48686;DHT22;34485;51.536;3.816;2022-10-18T17:00:42;13.80;99.90
48686;DHT22;34485;51.536;3.816;2022-10-18T17:03:09;13.70;99.90
48686;DHT22;34485;51.536;3.816;2022-10-18T17:05:35;13.70;99.90
48686;DHT22;34485;51.536;3.816;2022-10-18T17:08:00;13.60;99.90
48686;DHT22;34485;51.536;3.816;2022-10-18T17:10:26;13.50;99.90
48686;DHT22;34485;51.536;3.816;2022-10-18T17:12:52;13.40;99.90
48686;DHT22;34485;51.536;3.816;2022-10-18T17:15:18;13.40;99.90
48686;DHT22;34485;51.536;3.816;2022-10-18T17:17:44;13.30;99.90
48686;DHT22;34485;51.536;3.816;2022-10-18T17:20:24;13.30;99.90
48686;DHT22;34485;51.536;3.816;2022-10-18T17:22:50;13.20;99.90
48686;DHT22;34485;51.536;3.816;2022-10-18T17:25:17;13.10;99.90
48686;DHT22;34485;51.536;3.816;2022-10-18T17:27:43;13.00;99.90
48686;DHT22;34485;51.536;3.816;2022-10-18T17:30:10;13.00;99.90
48686;DHT22;34485;51.536;3.816;2022-10-18T17:32:36;12.90;99.90
48686;DHT22;34485;51.536;3.816;2022-10-18T17:35:02;12.90;99.90
48686;DHT22;34485;51.536;3.816;2022-10-18T17:37:28;12.90;99.90
48686;DHT22;34485;51.536;3.816;2022-10-18T17:39:53;12.80;99.90
48686;DHT22;34485;51.536;3.816;2022-10-18T17:42:19;12.80;99.90
48686;DHT22;34485;51.536;3.816;2022-10-18T17:44:46;12.70;99.90
48686;DHT22;34485;51.536;3.816;2022-10-18T17:47:11;12.70;99.90
48686;DHT22;34485;51.536;3.816;2022-10-18T17:49:37;12.60;99.90
48686;DHT22;34485;51.536;3.816;2022-10-18T17:52:03;12.50;99.90
48686;DHT22;34485;51.536;3.816;2022-10-18T17:54:29;12.40;99.90
48686;DHT22;34485;51.536;3.816;2022-10-18T17:56:54;12.30;99.90
48686;DHT22;34485;51.536;3.816;2022-10-18T17:59:20;12.30;99.90
48686;DHT22;34485;51.536;3.816;2022-10-18T18:01:46;12.20;99.90
48686;DHT22;34485;51.536;3.816;2022-10-18T18:04:12;12.20;99.90
48686;DHT22;34485;51.536;3.816;2022-10-18T18:06:38;12.10;99.90